createdAt,value
2019-03-19T00:00:55.097Z,99.99
2019-03-19T00:11:54.100Z,99.99
2019-03-19T00:22:55.661Z,99.99
2019-03-19T00:33:59.593Z,99.99
2019-03-19T00:44:58.689Z,99.99
2019-03-19T00:55:56.540Z,99.99
2019-03-19T01:06:59.031Z,99.99
2019-03-19T01:18:00.528Z,99.99
2019-03-19T01:29:03.865Z,99.99
2019-03-19T01:40:03.358Z,99.99
2019-03-19T01:51:05.084Z,99.99
2019-03-19T02:02:08.529Z,99.99
2019-03-19T02:13:06.425Z,99.99
2019-03-19T02:24:04.806Z,99.99
2019-03-19T02:35:07.036Z,99.99
2019-03-19T02:46:07.559Z,99.99
2019-03-19T02:57:07.341Z,99.99
2019-03-19T03:08:11.838Z,99.99
2019-03-19T03:19:02.452Z,99.99
2019-03-19T03:30:02.397Z,99.99
2019-03-19T03:41:00.057Z,99.99
2019-03-19T03:51:57.858Z,99.99
2019-03-19T04:02:59.719Z,99.99
2019-03-19T04:13:57.972Z,99.99
2019-03-19T04:25:00.573Z,99.99
2019-03-19T04:36:01.808Z,99.99
2019-03-19T04:46:59.274Z,99.99
2019-03-19T04:57:59.213Z,99.99
2019-03-19T05:09:01.258Z,99.99
2019-03-19T05:20:03.222Z,99.99
2019-03-19T05:31:04.219Z,99.99
2019-03-19T05:42:07.330Z,99.99
2019-03-19T05:53:10.168Z,99.99
2019-03-19T06:04:11.556Z,99.99
2019-03-19T06:15:16.331Z,99.99
2019-03-19T06:26:20.833Z,99.99
2019-03-19T06:37:21.812Z,99.99
2019-03-19T06:48:24.258Z,99.99
2019-03-19T06:59:26.309Z,99.99
2019-03-19T07:10:28.697Z,99.99
2019-03-19T07:21:25.471Z,99.99
2019-03-19T07:32:25.342Z,99.99
2019-03-19T07:43:29.896Z,99.99
2019-03-19T07:54:34.886Z,99.99
2019-03-19T08:05:34.154Z,99.99
2019-03-19T08:16:32.260Z,99.99
2019-03-19T08:27:36.963Z,99.99
2019-03-19T08:38:42.016Z,99.99
2019-03-19T08:49:42.909Z,99.99
2019-03-19T09:00:38.282Z,99.99
2019-03-19T09:11:38.226Z,99.99
2019-03-19T09:22:38.921Z,99.99
2019-03-19T09:33:41.872Z,97.33
2019-03-19T09:44:40.793Z,96.15
2019-03-19T09:55:43.383Z,96.21
2019-03-19T10:06:47.299Z,97.24
2019-03-19T10:17:46.112Z,95.45
2019-03-19T10:28:43.727Z,95.03
2019-03-19T10:39:46.893Z,95.39
2019-03-19T10:50:49.079Z,94.89
2019-03-19T11:01:51.543Z,95.10
2019-03-19T11:12:50.179Z,96.20
2019-03-19T11:23:50.968Z,96.42
2019-03-19T11:34:55.910Z,96.46
2019-03-19T11:45:58.267Z,98.14
2019-03-19T11:57:02.028Z,97.02
2019-03-19T12:08:06.103Z,96.30
2019-03-19T12:19:09.539Z,97.74
2019-03-19T12:30:21.708Z,93.88
2019-03-19T12:41:21.229Z,93.66
2019-03-19T12:52:21.222Z,94.84
2019-03-19T13:03:23.906Z,95.25
2019-03-19T13:14:23.802Z,95.20
2019-03-19T13:25:21.577Z,99.43
2019-03-19T13:36:24.159Z,99.99
2019-03-19T13:47:23.042Z,99.99
2019-03-19T13:58:29.891Z,95.00
2019-03-19T14:09:45.530Z,84.51
2019-03-19T14:20:42.018Z,92.02
2019-03-19T14:31:39.989Z,97.75
2019-03-19T14:42:39.653Z,99.99
2019-03-19T14:53:41.880Z,99.99
2019-03-19T15:04:42.857Z,99.99
2019-03-19T15:15:43.566Z,99.99
2019-03-19T15:26:44.646Z,99.99
2019-03-19T15:37:47.502Z,99.99
2019-03-19T15:48:49.299Z,99.99
2019-03-19T15:59:52.944Z,99.99
2019-03-19T16:10:51.426Z,99.99
2019-03-19T16:21:52.791Z,99.99
2019-03-19T16:32:57.077Z,99.99
2019-03-19T16:43:57.707Z,99.99
2019-03-19T16:54:55.644Z,99.99
2019-03-19T17:05:58.907Z,99.99
2019-03-19T17:16:54.318Z,99.99
2019-03-19T17:27:52.793Z,99.99
2019-03-19T17:38:50.327Z,99.99
2019-03-19T17:49:47.034Z,99.99
2019-03-19T18:00:45.772Z,99.99
2019-03-19T18:11:43.977Z,99.99
2019-03-19T18:22:45.042Z,99.99
2019-03-19T18:33:41.816Z,99.99
2019-03-19T18:44:41.839Z,99.99
2019-03-19T18:55:39.003Z,99.99
2019-03-19T19:06:39.501Z,99.99
2019-03-19T19:17:37.137Z,99.99
2019-03-19T19:28:37.378Z,99.99
2019-03-19T19:39:35.874Z,99.99
2019-03-19T19:50:35.723Z,99.99
2019-03-19T20:01:34.293Z,99.99
2019-03-19T20:12:34.276Z,99.99
2019-03-19T20:23:31.236Z,99.99
2019-03-19T20:34:28.141Z,99.99
2019-03-19T20:45:28.827Z,99.99
2019-03-19T20:56:28.932Z,99.99
2019-03-19T21:07:27.261Z,99.99
2019-03-19T21:18:28.000Z,99.99
2019-03-19T21:29:30.261Z,99.99
2019-03-19T21:40:31.513Z,99.99
2019-03-19T21:51:27.736Z,99.99
2019-03-19T22:02:25.856Z,99.99
2019-03-19T22:13:23.834Z,99.99
2019-03-19T22:24:24.805Z,99.99
2019-03-19T22:35:23.498Z,99.99
2019-03-19T22:46:22.196Z,99.99
2019-03-19T22:57:24.517Z,99.99
2019-03-19T23:08:26.965Z,99.99
2019-03-19T23:19:23.894Z,99.99
2019-03-19T23:30:24.998Z,99.99
2019-03-19T23:41:22.702Z,99.99
2019-03-19T23:52:20.177Z,99.99
